sensor_id;sensor_type;location;lat;lon;timestamp;temperature;humidity
37518;DHT22;23366;52.498;13.446;2022-08-20T00:00:21;22.40;99.90
37518;DHT22;23366;52.498;13.446;2022-08-20T00:02:51;22.40;99.90
37518;DHT22;23366;52.498;13.446;2022-08-20T00:05:26;22.40;99.90
37518;DHT22;23366;52.498;13.446;2022-08-20T00:07:52;22.40;99.90
37518;DHT22;23366;52.498;13.446;2022-08-20T00:10:18;22.30;99.90
37518;DHT22;23366;52.498;13.446;2022-08-20T00:12:47;22.30;99.90
37518;DHT22;23366;52.498;13.446;2022-08-20T00:15:14;22.30;99.90
37518;DHT22;23366;52.498;13.446;2022-08-20T00:17:40;22.30;99.90
37518;DHT22;23366;52.498;13.446;2022-08-20T00:20:09;22.30;99.90
37518;DHT22;23366;52.498;13.446;2022-08-20T00:22:35;22.30;99.90
37518;DHT22;23366;52.498;13.446;2022-08-20T00:25:02;22.30;99.90
37518;DHT22;23366;52.498;13.446;2022-08-20T00:27:28;22.30;99.90
37518;DHT22;23366;52.498;13.446;2022-08-20T00:29:53;22.30;99.90
37518;DHT22;23366;52.498;13.446;2022-08-20T00:32:19;22.30;99.90
37518;DHT22;23366;52.498;13.446;2022-08-20T00:34:45;22.30;99.90
37518;DHT22;23366;52.498;13.446;2022-08-20T00:37:11;22.30;99.90
37518;DHT22;23366;52.498;13.446;2022-08-20T00:39:37;22.30;99.90
37518;DHT22;23366;52.498;13.446;2022-08-20T00:42:03;22.30;99.90
37518;DHT22;23366;52.498;13.446;2022-08-20T00:44:28;22.30;99.90
37518;DHT22;23366;52.498;13.446;2022-08-20T00:46:54;22.30;99.90
37518;DHT22;23366;52.498;13.446;2022-08-20T00:49:23;22.30;99.90
37518;DHT22;23366;52.498;13.446;2022-08-20T00:52:12;22.30;99.90
37518;DHT22;23366;52.498;13.446;2022-08-20T00:54:46;22.30;99.90
37518;DHT22;23366;52.498;13.446;2022-08-20T00:57:23;22.30;99.90
37518;DHT22;23366;52.498;13.446;2022-08-20T00:59:51;22.30;99.90
37518;DHT22;23366;52.498;13.446;2022-08-20T01:02:21;22.20;99.90
37518;DHT22;23366;52.498;13.446;2022-08-20T01:04:47;22.20;99.90
37518;DHT22;23366;52.498;13.446;2022-08-20T01:07:16;22.20;99.90
37518;DHT22;23366;52.498;13.446;2022-08-20T01:09:45;22.20;99.90
37518;DHT22;23366;52.498;13.446;2022-08-20T01:12:12;22.20;99.90
37518;DHT22;23366;52.498;13.446;2022-08-20T01:14:40;22.10;99.90
37518;DHT22;23366;52.498;13.446;2022-08-20T01:17:14;22.10;99.90
37518;DHT22;23366;52.498;13.446;2022-08-20T01:22:40;22.00;99.90
37518;DHT22;23366;52.498;13.446;2022-08-20T01:28:04;22.10;99.90
37518;DHT22;23366;52.498;13.446;2022-08-20T01:30:31;22.00;99.90
37518;DHT22;23366;52.498;13.446;2022-08-20T01:32:57;21.90;99.90
37518;DHT22;23366;52.498;13.446;2022-08-20T01:35:25;21.90;99.90
37518;DHT22;23366;52.498;13.446;2022-08-20T01:37:51;21.90;99.90
37518;DHT22;23366;52.498;13.446;2022-08-20T01:40:26;21.90;99.90
37518;DHT22;23366;52.498;13.446;2022-08-20T01:42:53;21.90;99.90
37518;DHT22;23366;52.498;13.446;2022-08-20T01:45:19;21.90;99.90
37518;DHT22;23366;52.498;13.446;2022-08-20T01:47:45;21.90;99.90
37518;DHT22;23366;52.498;13.446;2022-08-20T01:50:17;21.90;99.90
37518;DHT22;23366;52.498;13.446;2022-08-20T01:53:03;21.80;99.90
37518;DHT22;23366;52.498;13.446;2022-08-20T01:55:31;21.80;99.90
37518;DHT22;23366;52.498;13.446;2022-08-20T01:57:58;21.80;99.90
37518;DHT22;23366;52.498;13.446;2022-08-20T02:00:24;21.80;99.90
37518;DHT22;23366;52.498;13.446;2022-08-20T02:02:50;21.80;99.90
37518;DHT22;23366;52.498;13.446;2022-08-20T02:05:16;21.80;99.90
37518;DHT22;23366;52.498;13.446;2022-08-20T02:07:42;21.80;99.90
37518;DHT22;23366;52.498;13.446;2022-08-20T02:10:10;21.70;99.90
37518;DHT22;23366;52.498;13.446;2022-08-20T02:12:37;21.80;99.90
37518;DHT22;23366;52.498;13.446;2022-08-20T02:15:06;21.80;99.90
37518;DHT22;23366;52.498;13.446;2022-08-20T02:17:33;21.80;99.90
37518;DHT22;23366;52.498;13.446;2022-08-20T02:20:17;21.80;99.90
37518;DHT22;23366;52.498;13.446;2022-08-20T02:22:49;21.70;99.90
37518;DHT22;23366;52.498;13.446;2022-08-20T02:25:18;21.70;99.90
37518;DHT22;23366;52.498;13.446;2022-08-20T02:27:46;21.60;99.90
37518;DHT22;23366;52.498;13.446;2022-08-20T02:30:19;21.50;99.90
37518;DHT22;23366;52.498;13.446;2022-08-20T02:32:46;21.50;99.90
37518;DHT22;23366;52.498;13.446;2022-08-20T02:35:13;21.40;99.90
37518;DHT22;23366;52.498;13.446;2022-08-20T02:37:41;21.30;99.90
37518;DHT22;23366;52.498;13.446;2022-08-20T02:40:10;21.20;99.90
37518;DHT22;23366;52.498;13.446;2022-08-20T02:42:36;21.20;99.90
37518;DHT22;23366;52.498;13.446;2022-08-20T02:45:04;21.20;99.90
37518;DHT22;23366;52.498;13.446;2022-08-20T02:47:30;21.20;99.90
37518;DHT22;23366;52.498;13.446;2022-08-20T02:49:56;21.10;99.90
37518;DHT22;23366;52.498;13.446;2022-08-20T02:52:24;21.00;99.90
37518;DHT22;23366;52.498;13.446;2022-08-20T02:54:49;21.00;99.90
37518;DHT22;23366;52.498;13.446;2022-08-20T02:57:17;20.90;99.90
37518;DHT22;23366;52.498;13.446;2022-08-20T02:59:45;20.90;99.90
37518;DHT22;23366;52.498;13.446;2022-08-20T03:02:11;20.90;99.90
37518;DHT22;23366;52.498;13.446;2022-08-20T03:04:37;20.90;99.90
37518;DHT22;23366;52.498;13.446;2022-08-20T03:07:03;20.90;99.90
37518;DHT22;23366;52.498;13.446;2022-08-20T03:09:29;20.90;99.90
37518;DHT22;23366;52.498;13.446;2022-08-20T03:11:55;20.90;99.90
37518;DHT22;23366;52.498;13.446;2022-08-20T03:14:20;20.90;99.90
37518;DHT22;23366;52.498;13.446;2022-08-20T03:16:46;20.90;99.90
37518;DHT22;23366;52.498;13.446;2022-08-20T03:19:11;20.90;99.90
37518;DHT22;23366;52.498;13.446;2022-08-20T03:21:38;20.90;99.90
37518;DHT22;23366;52.498;13.446;2022-08-20T03:24:04;20.90;99.90
37518;DHT22;23366;52.498;13.446;2022-08-20T03:26:30;20.90;99.90
37518;DHT22;23366;52.498;13.446;2022-08-20T03:28:57;21.00;99.90
37518;DHT22;23366;52.498;13.446;2022-08-20T03:31:23;21.00;99.90
37518;DHT22;23366;52.498;13.446;2022-08-20T03:33:48;21.00;99.90
37518;DHT22;23366;52.498;13.446;2022-08-20T03:36:14;21.00;99.90
37518;DHT22;23366;52.498;13.446;2022-08-20T03:38:39;21.00;99.90
37518;DHT22;23366;52.498;13.446;2022-08-20T03:41:07;21.00;99.90
37518;DHT22;23366;52.498;13.446;2022-08-20T03:43:34;21.00;99.90
37518;DHT22;23366;52.498;13.446;2022-08-20T03:46:02;21.00;99.90
37518;DHT22;23366;52.498;13.446;2022-08-20T03:48:28;21.00;99.90
37518;DHT22;23366;52.498;13.446;2022-08-20T03:50:53;21.10;99.90
37518;DHT22;23366;52.498;13.446;2022-08-20T03:53:21;21.10;99.90
37518;DHT22;23366;52.498;13.446;2022-08-20T03:55:48;21.10;99.90
37518;DHT22;23366;52.498;13.446;2022-08-20T03:58:17;21.10;99.90
37518;DHT22;23366;52.498;13.446;2022-08-20T04:00:48;21.10;99.90
37518;DHT22;23366;52.498;13.446;2022-08-20T04:03:15;21.00;99.90
37518;DHT22;23366;52.498;13.446;2022-08-20T04:05:43;21.10;99.90
37518;DHT22;23366;52.498;13.446;2022-08-20T04:08:24;21.10;99.90
37518;DHT22;23366;52.498;13.446;2022-08-20T04:10:52;21.10;99.90
37518;DHT22;23366;52.498;13.446;2022-08-20T04:13:21;21.10;99.90
37518;DHT22;23366;52.498;13.446;2022-08-20T04:15:48;21.10;99.90
37518;DHT22;23366;52.498;13.446;2022-08-20T04:18:15;21.10;99.90
37518;DHT22;23366;52.498;13.446;2022-08-20T04:20:45;21.10;99.90
37518;DHT22;23366;52.498;13.446;2022-08-20T04:23:11;21.10;99.90
37518;DHT22;23366;52.498;13.446;2022-08-20T04:25:38;21.10;99.90
37518;DHT22;23366;52.498;13.446;2022-08-20T04:28:14;21.10;99.90
37518;DHT22;23366;52.498;13.446;2022-08-20T04:30:39;21.10;99.90
37518;DHT22;23366;52.498;13.446;2022-08-20T04:33:08;21.20;99.90
37518;DHT22;23366;52.498;13.446;2022-08-20T04:35:35;21.20;99.90
37518;DHT22;23366;52.498;13.446;2022-08-20T04:38:03;21.20;99.90
37518;DHT22;23366;52.498;13.446;2022-08-20T04:40:29;21.10;99.90
37518;DHT22;23366;52.498;13.446;2022-08-20T04:43:14;21.20;99.90
37518;DHT22;23366;52.498;13.446;2022-08-20T04:45:40;21.20;99.90
37518;DHT22;23366;52.498;13.446;2022-08-20T04:48:07;21.20;99.90
37518;DHT22;23366;52.498;13.446;2022-08-20T04:50:34;21.20;99.90
37518;DHT22;23366;52.498;13.446;2022-08-20T04:53:06;21.30;99.90
37518;DHT22;23366;52.498;13.446;2022-08-20T04:55:33;21.30;99.90
37518;DHT22;23366;52.498;13.446;2022-08-20T04:58:06;21.30;99.90
37518;DHT22;23366;52.498;13.446;2022-08-20T05:00:31;21.40;99.90
37518;DHT22;23366;52.498;13.446;2022-08-20T05:02:58;21.40;99.90
37518;DHT22;23366;52.498;13.446;2022-08-20T05:05:24;21.40;99.90
37518;DHT22;23366;52.498;13.446;2022-08-20T05:07:51;21.40;99.90
37518;DHT22;23366;52.498;13.446;2022-08-20T05:10:18;21.50;99.90
37518;DHT22;23366;52.498;13.446;2022-08-20T05:12:44;21.50;99.90
37518;DHT22;23366;52.498;13.446;2022-08-20T05:15:10;21.60;99.90
37518;DHT22;23366;52.498;13.446;2022-08-20T05:17:40;21.60;99.90
37518;DHT22;23366;52.498;13.446;2022-08-20T05:20:08;21.60;99.90
37518;DHT22;23366;52.498;13.446;2022-08-20T05:22:34;21.60;99.90
37518;DHT22;23366;52.498;13.446;2022-08-20T05:25:00;21.60;99.90
37518;DHT22;23366;52.498;13.446;2022-08-20T05:27:28;21.60;99.90
37518;DHT22;23366;52.498;13.446;2022-08-20T05:30:10;21.60;99.90
37518;DHT22;23366;52.498;13.446;2022-08-20T05:32:36;21.60;99.90
37518;DHT22;23366;52.498;13.446;2022-08-20T05:35:08;21.70;99.90
37518;DHT22;23366;52.498;13.446;2022-08-20T05:37:38;21.70;99.90
37518;DHT22;23366;52.498;13.446;2022-08-20T05:40:14;21.70;99.90
37518;DHT22;23366;52.498;13.446;2022-08-20T05:42:41;21.80;99.90
37518;DHT22;23366;52.498;13.446;2022-08-20T05:45:07;21.80;99.90
37518;DHT22;23366;52.498;13.446;2022-08-20T05:47:36;21.80;99.90
37518;DHT22;23366;52.498;13.446;2022-08-20T05:50:04;21.90;99.90
37518;DHT22;23366;52.498;13.446;2022-08-20T05:52:29;22.00;99.90
37518;DHT22;23366;52.498;13.446;2022-08-20T05:54:55;22.10;99.90
37518;DHT22;23366;52.498;13.446;2022-08-20T05:57:21;22.20;99.90
37518;DHT22;23366;52.498;13.446;2022-08-20T05:59:47;22.30;99.90
37518;DHT22;23366;52.498;13.446;2022-08-20T06:02:13;22.30;99.90
37518;DHT22;23366;52.498;13.446;2022-08-20T06:04:58;22.40;99.90
37518;DHT22;23366;52.498;13.446;2022-08-20T06:07:23;22.40;99.90
37518;DHT22;23366;52.498;13.446;2022-08-20T06:09:50;22.40;99.90
37518;DHT22;23366;52.498;13.446;2022-08-20T06:12:16;22.50;99.90
37518;DHT22;23366;52.498;13.446;2022-08-20T06:14:43;22.40;99.90
37518;DHT22;23366;52.498;13.446;2022-08-20T06:17:16;22.30;99.90
37518;DHT22;23366;52.498;13.446;2022-08-20T06:19:45;22.20;99.90
37518;DHT22;23366;52.498;13.446;2022-08-20T06:22:12;22.10;99.90
37518;DHT22;23366;52.498;13.446;2022-08-20T06:24:38;22.10;99.90
37518;DHT22;23366;52.498;13.446;2022-08-20T06:27:05;22.00;99.90
37518;DHT22;23366;52.498;13.446;2022-08-20T06:29:31;22.00;99.90
37518;DHT22;23366;52.498;13.446;2022-08-20T06:32:00;22.00;99.90
37518;DHT22;23366;52.498;13.446;2022-08-20T06:34:26;22.00;99.90
37518;DHT22;23366;52.498;13.446;2022-08-20T06:36:53;21.90;99.90
37518;DHT22;23366;52.498;13.446;2022-08-20T06:39:19;21.90;99.90
37518;DHT22;23366;52.498;13.446;2022-08-20T06:41:45;21.90;99.90
37518;DHT22;23366;52.498;13.446;2022-08-20T06:44:10;21.90;99.90
37518;DHT22;23366;52.498;13.446;2022-08-20T06:46:39;21.80;99.90
37518;DHT22;23366;52.498;13.446;2022-08-20T06:49:10;21.80;99.90
37518;DHT22;23366;52.498;13.446;2022-08-20T06:51:36;21.80;99.90
37518;DHT22;23366;52.498;13.446;2022-08-20T06:54:03;21.80;99.90
37518;DHT22;23366;52.498;13.446;2022-08-20T06:56:29;21.80;99.90
37518;DHT22;23366;52.498;13.446;2022-08-20T06:58:55;21.90;99.90
37518;DHT22;23366;52.498;13.446;2022-08-20T07:01:21;21.90;99.90
37518;DHT22;23366;52.498;13.446;2022-08-20T07:03:47;22.00;99.90
37518;DHT22;23366;52.498;13.446;2022-08-20T07:06:15;22.00;99.90
37518;DHT22;23366;52.498;13.446;2022-08-20T07:08:41;22.00;99.90
37518;DHT22;23366;52.498;13.446;2022-08-20T07:11:07;22.10;99.90
37518;DHT22;23366;52.498;13.446;2022-08-20T07:13:33;22.10;99.90
37518;DHT22;23366;52.498;13.446;2022-08-20T07:16:03;22.20;99.90
37518;DHT22;23366;52.498;13.446;2022-08-20T07:18:29;22.20;99.90
37518;DHT22;23366;52.498;13.446;2022-08-20T07:20:55;22.20;99.90
37518;DHT22;23366;52.498;13.446;2022-08-20T07:23:24;22.20;99.90
37518;DHT22;23366;52.498;13.446;2022-08-20T07:25:51;22.20;99.90
37518;DHT22;23366;52.498;13.446;2022-08-20T07:28:20;22.20;99.90
37518;DHT22;23366;52.498;13.446;2022-08-20T07:30:46;22.20;99.90
37518;DHT22;23366;52.498;13.446;2022-08-20T07:33:31;22.30;99.90
37518;DHT22;23366;52.498;13.446;2022-08-20T07:35:58;22.30;99.90
37518;DHT22;23366;52.498;13.446;2022-08-20T07:38:26;22.20;99.90
37518;DHT22;23366;52.498;13.446;2022-08-20T07:40:58;22.20;99.90
37518;DHT22;23366;52.498;13.446;2022-08-20T07:43:24;22.20;99.90
37518;DHT22;23366;52.498;13.446;2022-08-20T07:45:52;22.20;99.90
37518;DHT22;23366;52.498;13.446;2022-08-20T07:48:21;22.20;99.90
37518;DHT22;23366;52.498;13.446;2022-08-20T07:50:51;22.20;99.90
37518;DHT22;23366;52.498;13.446;2022-08-20T07:53:16;22.10;99.90
37518;DHT22;23366;52.498;13.446;2022-08-20T07:55:42;22.10;99.90
37518;DHT22;23366;52.498;13.446;2022-08-20T07:58:12;22.10;99.90
37518;DHT22;23366;52.498;13.446;2022-08-20T08:00:38;22.00;99.90
37518;DHT22;23366;52.498;13.446;2022-08-20T08:03:05;22.00;99.90
37518;DHT22;23366;52.498;13.446;2022-08-20T08:05:36;22.00;99.90
37518;DHT22;23366;52.498;13.446;2022-08-20T08:08:21;22.00;99.90
37518;DHT22;23366;52.498;13.446;2022-08-20T08:10:49;22.00;99.90
37518;DHT22;23366;52.498;13.446;2022-08-20T08:13:15;21.90;99.90
37518;DHT22;23366;52.498;13.446;2022-08-20T08:15:45;22.00;99.90
37518;DHT22;23366;52.498;13.446;2022-08-20T08:18:15;22.00;99.90
37518;DHT22;23366;52.498;13.446;2022-08-20T08:20:45;22.00;99.90
37518;DHT22;23366;52.498;13.446;2022-08-20T08:23:11;21.90;99.90
37518;DHT22;23366;52.498;13.446;2022-08-20T08:25:40;21.90;99.90
37518;DHT22;23366;52.498;13.446;2022-08-20T08:28:11;21.90;99.90
37518;DHT22;23366;52.498;13.446;2022-08-20T08:30:38;21.90;99.90
37518;DHT22;23366;52.498;13.446;2022-08-20T08:33:05;21.90;99.90
37518;DHT22;23366;52.498;13.446;2022-08-20T08:35:50;21.90;99.90
37518;DHT22;23366;52.498;13.446;2022-08-20T08:38:16;21.90;99.90
37518;DHT22;23366;52.498;13.446;2022-08-20T08:40:42;22.00;99.90
37518;DHT22;23366;52.498;13.446;2022-08-20T08:43:11;22.00;99.90
37518;DHT22;23366;52.498;13.446;2022-08-20T08:45:42;22.10;99.90
37518;DHT22;23366;52.498;13.446;2022-08-20T08:48:17;22.10;99.90
37518;DHT22;23366;52.498;13.446;2022-08-20T08:50:46;22.20;99.90
37518;DHT22;23366;52.498;13.446;2022-08-20T08:53:26;22.20;99.90
37518;DHT22;23366;52.498;13.446;2022-08-20T08:55:54;22.20;99.90
37518;DHT22;23366;52.498;13.446;2022-08-20T08:58:20;22.30;99.90
37518;DHT22;23366;52.498;13.446;2022-08-20T09:00:45;22.30;99.90
37518;DHT22;23366;52.498;13.446;2022-08-20T09:03:32;22.40;99.90
37518;DHT22;23366;52.498;13.446;2022-08-20T09:06:01;22.50;99.90
37518;DHT22;23366;52.498;13.446;2022-08-20T09:08:39;22.60;99.90
37518;DHT22;23366;52.498;13.446;2022-08-20T09:11:07;22.60;99.90
37518;DHT22;23366;52.498;13.446;2022-08-20T09:13:35;22.70;99.90
37518;DHT22;23366;52.498;13.446;2022-08-20T09:16:03;22.70;99.90
37518;DHT22;23366;52.498;13.446;2022-08-20T09:18:28;22.70;99.90
37518;DHT22;23366;52.498;13.446;2022-08-20T09:20:54;22.90;99.90
37518;DHT22;23366;52.498;13.446;2022-08-20T09:23:20;22.90;99.90
37518;DHT22;23366;52.498;13.446;2022-08-20T09:25:46;23.10;99.90
37518;DHT22;23366;52.498;13.446;2022-08-20T09:28:12;23.20;99.90
37518;DHT22;23366;52.498;13.446;2022-08-20T09:30:37;23.40;99.90
37518;DHT22;23366;52.498;13.446;2022-08-20T09:33:03;23.50;99.90
37518;DHT22;23366;52.498;13.446;2022-08-20T09:35:28;23.60;99.90
37518;DHT22;23366;52.498;13.446;2022-08-20T09:37:55;23.50;99.90
37518;DHT22;23366;52.498;13.446;2022-08-20T09:40:21;23.50;99.90
37518;DHT22;23366;52.498;13.446;2022-08-20T09:42:47;23.50;99.90
37518;DHT22;23366;52.498;13.446;2022-08-20T09:45:14;23.60;99.90
37518;DHT22;23366;52.498;13.446;2022-08-20T09:47:40;23.60;99.90
37518;DHT22;23366;52.498;13.446;2022-08-20T09:50:07;23.60;99.90
37518;DHT22;23366;52.498;13.446;2022-08-20T09:52:36;23.50;99.90
37518;DHT22;23366;52.498;13.446;2022-08-20T09:55:12;23.40;99.90
37518;DHT22;23366;52.498;13.446;2022-08-20T09:57:39;23.30;99.90
37518;DHT22;23366;52.498;13.446;2022-08-20T10:00:07;23.20;99.90
37518;DHT22;23366;52.498;13.446;2022-08-20T10:02:33;23.30;99.90
37518;DHT22;23366;52.498;13.446;2022-08-20T10:04:59;23.20;99.90
37518;DHT22;23366;52.498;13.446;2022-08-20T10:07:25;23.30;99.90
37518;DHT22;23366;52.498;13.446;2022-08-20T10:09:50;23.40;99.90
37518;DHT22;23366;52.498;13.446;2022-08-20T10:12:16;23.40;99.90
37518;DHT22;23366;52.498;13.446;2022-08-20T10:14:41;23.50;99.90
37518;DHT22;23366;52.498;13.446;2022-08-20T10:17:07;23.50;99.90
37518;DHT22;23366;52.498;13.446;2022-08-20T10:19:32;23.60;99.90
37518;DHT22;23366;52.498;13.446;2022-08-20T10:21:58;23.70;99.90
37518;DHT22;23366;52.498;13.446;2022-08-20T10:24:25;23.80;99.90
37518;DHT22;23366;52.498;13.446;2022-08-20T10:26:54;24.00;99.90
37518;DHT22;23366;52.498;13.446;2022-08-20T10:29:20;24.00;99.90
37518;DHT22;23366;52.498;13.446;2022-08-20T10:31:45;24.20;99.90
37518;DHT22;23366;52.498;13.446;2022-08-20T10:34:10;24.30;99.90
37518;DHT22;23366;52.498;13.446;2022-08-20T10:36:36;24.40;99.90
37518;DHT22;23366;52.498;13.446;2022-08-20T10:39:02;24.40;99.90
37518;DHT22;23366;52.498;13.446;2022-08-20T10:41:28;24.60;99.90
37518;DHT22;23366;52.498;13.446;2022-08-20T10:43:54;24.90;99.90
37518;DHT22;23366;52.498;13.446;2022-08-20T10:46:19;25.10;99.90
37518;DHT22;23366;52.498;13.446;2022-08-20T10:48:44;25.20;99.90
37518;DHT22;23366;52.498;13.446;2022-08-20T10:51:10;25.40;99.90
37518;DHT22;23366;52.498;13.446;2022-08-20T10:53:36;25.60;99.90
37518;DHT22;23366;52.498;13.446;2022-08-20T10:56:01;25.70;99.90
37518;DHT22;23366;52.498;13.446;2022-08-20T10:58:27;25.90;99.90
37518;DHT22;23366;52.498;13.446;2022-08-20T11:00:53;26.00;99.90
37518;DHT22;23366;52.498;13.446;2022-08-20T11:03:18;26.00;99.90
37518;DHT22;23366;52.498;13.446;2022-08-20T11:05:45;26.10;99.90
37518;DHT22;23366;52.498;13.446;2022-08-20T11:08:11;26.20;99.90
37518;DHT22;23366;52.498;13.446;2022-08-20T11:10:37;26.20;99.90
37518;DHT22;23366;52.498;13.446;2022-08-20T11:13:04;26.20;99.90
37518;DHT22;23366;52.498;13.446;2022-08-20T11:15:33;26.30;99.90
37518;DHT22;23366;52.498;13.446;2022-08-20T11:17:59;26.30;99.90
37518;DHT22;23366;52.498;13.446;2022-08-20T11:20:25;26.20;99.90
37518;DHT22;23366;52.498;13.446;2022-08-20T11:22:52;26.10;99.90
37518;DHT22;23366;52.498;13.446;2022-08-20T11:25:18;26.00;99.90
37518;DHT22;23366;52.498;13.446;2022-08-20T11:27:47;25.90;99.90
37518;DHT22;23366;52.498;13.446;2022-08-20T11:30:20;25.90;99.90
37518;DHT22;23366;52.498;13.446;2022-08-20T11:32:46;25.80;99.90
37518;DHT22;23366;52.498;13.446;2022-08-20T11:35:12;25.70;99.90
37518;DHT22;23366;52.498;13.446;2022-08-20T11:37:38;25.60;99.90
37518;DHT22;23366;52.498;13.446;2022-08-20T11:40:05;25.50;99.90
37518;DHT22;23366;52.498;13.446;2022-08-20T11:42:32;25.50;99.90
37518;DHT22;23366;52.498;13.446;2022-08-20T11:44:57;25.40;99.90
37518;DHT22;23366;52.498;13.446;2022-08-20T11:47:26;25.30;99.90
37518;DHT22;23366;52.498;13.446;2022-08-20T11:50:01;25.30;99.90
37518;DHT22;23366;52.498;13.446;2022-08-20T11:52:27;25.30;99.90
37518;DHT22;23366;52.498;13.446;2022-08-20T11:54:53;25.20;99.90
37518;DHT22;23366;52.498;13.446;2022-08-20T11:57:24;25.20;99.90
37518;DHT22;23366;52.498;13.446;2022-08-20T11:59:51;25.00;99.90
37518;DHT22;23366;52.498;13.446;2022-08-20T12:02:17;25.00;99.90
37518;DHT22;23366;52.498;13.446;2022-08-20T12:04:43;24.90;99.90
37518;DHT22;23366;52.498;13.446;2022-08-20T12:07:11;24.90;99.90
37518;DHT22;23366;52.498;13.446;2022-08-20T12:09:37;24.80;99.90
37518;DHT22;23366;52.498;13.446;2022-08-20T12:12:03;24.70;99.90
37518;DHT22;23366;52.498;13.446;2022-08-20T12:14:29;24.70;99.90
37518;DHT22;23366;52.498;13.446;2022-08-20T12:16:54;24.60;99.90
37518;DHT22;23366;52.498;13.446;2022-08-20T12:19:20;24.60;99.90
37518;DHT22;23366;52.498;13.446;2022-08-20T12:21:45;24.60;99.90
37518;DHT22;23366;52.498;13.446;2022-08-20T12:24:11;24.60;99.90
37518;DHT22;23366;52.498;13.446;2022-08-20T12:26:36;24.60;99.90
37518;DHT22;23366;52.498;13.446;2022-08-20T12:29:01;24.60;99.90
37518;DHT22;23366;52.498;13.446;2022-08-20T12:31:27;24.70;99.90
37518;DHT22;23366;52.498;13.446;2022-08-20T12:33:52;24.70;99.90
37518;DHT22;23366;52.498;13.446;2022-08-20T12:36:18;24.80;99.90
37518;DHT22;23366;52.498;13.446;2022-08-20T12:38:43;24.80;99.90
37518;DHT22;23366;52.498;13.446;2022-08-20T12:41:09;24.70;99.90
37518;DHT22;23366;52.498;13.446;2022-08-20T12:43:34;24.70;99.90
37518;DHT22;23366;52.498;13.446;2022-08-20T12:46:00;24.60;99.90
37518;DHT22;23366;52.498;13.446;2022-08-20T12:48:25;24.60;99.90
37518;DHT22;23366;52.498;13.446;2022-08-20T12:50:51;24.70;99.90
37518;DHT22;23366;52.498;13.446;2022-08-20T12:53:17;24.80;99.90
37518;DHT22;23366;52.498;13.446;2022-08-20T12:55:43;24.70;99.90
37518;DHT22;23366;52.498;13.446;2022-08-20T12:58:09;24.70;99.90
37518;DHT22;23366;52.498;13.446;2022-08-20T13:00:40;24.70;99.90
37518;DHT22;23366;52.498;13.446;2022-08-20T13:03:08;24.70;99.90
37518;DHT22;23366;52.498;13.446;2022-08-20T13:05:35;24.60;99.90
37518;DHT22;23366;52.498;13.446;2022-08-20T13:08:01;24.50;99.90
37518;DHT22;23366;52.498;13.446;2022-08-20T13:10:32;24.50;99.90
37518;DHT22;23366;52.498;13.446;2022-08-20T13:12:58;24.40;99.90
37518;DHT22;23366;52.498;13.446;2022-08-20T13:15:26;24.40;99.90
37518;DHT22;23366;52.498;13.446;2022-08-20T13:17:53;24.30;99.90
37518;DHT22;23366;52.498;13.446;2022-08-20T13:20:19;24.20;99.90
37518;DHT22;23366;52.498;13.446;2022-08-20T13:22:44;24.20;99.90
37518;DHT22;23366;52.498;13.446;2022-08-20T13:25:11;24.20;99.90
37518;DHT22;23366;52.498;13.446;2022-08-20T13:27:39;24.20;99.90
37518;DHT22;23366;52.498;13.446;2022-08-20T13:30:08;24.20;99.90
37518;DHT22;23366;52.498;13.446;2022-08-20T13:32:34;24.10;99.90
37518;DHT22;23366;52.498;13.446;2022-08-20T13:34:59;24.10;99.90
37518;DHT22;23366;52.498;13.446;2022-08-20T13:37:27;23.90;99.90
37518;DHT22;23366;52.498;13.446;2022-08-20T13:39:53;23.90;99.90
37518;DHT22;23366;52.498;13.446;2022-08-20T13:42:19;23.70;99.90
37518;DHT22;23366;52.498;13.446;2022-08-20T13:44:45;23.70;99.90
37518;DHT22;23366;52.498;13.446;2022-08-20T13:47:24;23.60;99.90
37518;DHT22;23366;52.498;13.446;2022-08-20T13:49:58;23.50;99.90
37518;DHT22;23366;52.498;13.446;2022-08-20T13:52:25;23.40;99.90
37518;DHT22;23366;52.498;13.446;2022-08-20T13:54:51;23.20;99.90
37518;DHT22;23366;52.498;13.446;2022-08-20T13:57:19;23.20;99.90
37518;DHT22;23366;52.498;13.446;2022-08-20T13:59:46;23.20;99.90
37518;DHT22;23366;52.498;13.446;2022-08-20T14:02:13;23.10;99.90
37518;DHT22;23366;52.498;13.446;2022-08-20T14:04:39;23.10;99.90
37518;DHT22;23366;52.498;13.446;2022-08-20T14:07:12;23.00;99.90
37518;DHT22;23366;52.498;13.446;2022-08-20T14:09:44;22.90;99.90
37518;DHT22;23366;52.498;13.446;2022-08-20T14:12:11;22.90;99.90
37518;DHT22;23366;52.498;13.446;2022-08-20T14:14:38;22.80;99.90
37518;DHT22;23366;52.498;13.446;2022-08-20T14:19:42;22.60;99.90
37518;DHT22;23366;52.498;13.446;2022-08-20T14:22:07;22.60;99.90
37518;DHT22;23366;52.498;13.446;2022-08-20T14:24:33;22.60;99.90
37518;DHT22;23366;52.498;13.446;2022-08-20T14:27:05;22.60;99.90
37518;DHT22;23366;52.498;13.446;2022-08-20T14:29:33;22.50;99.90
37518;DHT22;23366;52.498;13.446;2022-08-20T14:31:59;22.50;99.90
37518;DHT22;23366;52.498;13.446;2022-08-20T14:34:25;22.50;99.90
37518;DHT22;23366;52.498;13.446;2022-08-20T14:36:50;22.50;99.90
37518;DHT22;23366;52.498;13.446;2022-08-20T14:39:16;22.50;99.90
37518;DHT22;23366;52.498;13.446;2022-08-20T14:41:41;22.50;99.90
37518;DHT22;23366;52.498;13.446;2022-08-20T14:44:07;22.60;99.90
37518;DHT22;23366;52.498;13.446;2022-08-20T14:46:32;22.60;99.90
37518;DHT22;23366;52.498;13.446;2022-08-20T14:48:58;22.60;99.90
37518;DHT22;23366;52.498;13.446;2022-08-20T14:51:23;22.60;99.90
37518;DHT22;23366;52.498;13.446;2022-08-20T14:53:49;22.70;99.90
37518;DHT22;23366;52.498;13.446;2022-08-20T14:56:15;22.70;99.90
37518;DHT22;23366;52.498;13.446;2022-08-20T14:58:42;22.70;99.90
37518;DHT22;23366;52.498;13.446;2022-08-20T15:01:08;22.70;99.90
37518;DHT22;23366;52.498;13.446;2022-08-20T15:03:33;22.80;99.90
37518;DHT22;23366;52.498;13.446;2022-08-20T15:05:59;22.70;99.90
37518;DHT22;23366;52.498;13.446;2022-08-20T15:08:24;22.70;99.90
37518;DHT22;23366;52.498;13.446;2022-08-20T15:10:50;22.70;99.90
37518;DHT22;23366;52.498;13.446;2022-08-20T15:13:16;22.60;99.90
37518;DHT22;23366;52.498;13.446;2022-08-20T15:15:41;22.60;99.90
37518;DHT22;23366;52.498;13.446;2022-08-20T15:18:07;22.60;99.90
37518;DHT22;23366;52.498;13.446;2022-08-20T15:20:33;22.60;99.90
37518;DHT22;23366;52.498;13.446;2022-08-20T15:22:59;22.50;99.90
37518;DHT22;23366;52.498;13.446;2022-08-20T15:25:28;22.50;99.90